Bethel, Kentucky
Current Conditions -  °F | °C
As of 8:35 AM on Tuesday 21 Oct 2014 (Local Time) from KIOB Reporting Station
Haze Haze  
Wind Chill: 50°   Ceiling: 6500
Heat Index: 50°   Visibility: 5mi
Dew Point: 46°   Wind: 7mph
Humidity: 87%   Direction: 320°NW
Pressure: 30"   Gusts: NA
Location:  38.2169°N, 83.8725°W
Report Text: KIOB 211235Z AUTO 32006KT 5SM BR OVC065 10/08 A3000 RMK AO2
Loading
Personal Weather Stations






























Interactive Weather Map
Tropical Storm Tracking
New forecast layout! Learn more

10-Day Weather Forecast

Advertisements
Track Severe Weather on mobile